createdAt,value
2022-09-18T00:01:27.029Z,1.77
2022-09-18T00:03:55.167Z,1.63
2022-09-18T00:06:24.639Z,1.70
2022-09-18T00:08:53.433Z,1.30
2022-09-18T00:11:22.415Z,1.38
2022-09-18T00:13:49.970Z,1.52
2022-09-18T00:16:18.715Z,1.23
2022-09-18T00:18:45.932Z,1.70
2022-09-18T00:21:18.534Z,1.50
2022-09-18T00:23:45.201Z,1.20
2022-09-18T00:26:13.450Z,1.30
2022-09-18T00:28:39.904Z,1.50
2022-09-18T00:31:09.719Z,1.30
2022-09-18T00:33:36.320Z,1.17
2022-09-18T00:36:05.002Z,1.33
2022-09-18T00:38:32.329Z,1.30
2022-09-18T00:41:03.733Z,1.20
2022-09-18T00:43:33.364Z,1.02
2022-09-18T00:46:05.544Z,1.70
2022-09-18T00:48:46.977Z,1.10
2022-09-18T00:51:14.698Z,1.27
2022-09-18T00:53:45.504Z,1.10
2022-09-18T00:56:15.237Z,1.20
2022-09-18T00:58:43.092Z,1.02
2022-09-18T01:01:09.599Z,1.20
2022-09-18T01:03:36.142Z,1.40
2022-09-18T01:06:15.543Z,1.10
2022-09-18T01:09:09.917Z,1.20
2022-09-18T01:12:05.635Z,1.50
2022-09-18T01:14:59.847Z,1.10
2022-09-18T01:17:50.789Z,1.10
2022-09-18T01:20:26.158Z,1.52
2022-09-18T01:23:23.867Z,0.85
2022-09-18T01:26:22.080Z,0.98
2022-09-18T01:28:57.416Z,1.27
2022-09-18T01:31:31.952Z,0.90
2022-09-18T01:34:36.980Z,1.17
2022-09-18T01:37:15.776Z,1.30
2022-09-18T01:39:54.260Z,0.88
2022-09-18T01:42:24.118Z,0.90
2022-09-18T01:44:54.528Z,1.05
2022-09-18T01:47:25.583Z,1.13
2022-09-18T01:49:54.508Z,1.10
2022-09-18T01:52:27.503Z,1.10
2022-09-18T01:54:57.938Z,1.50
2022-09-18T01:57:52.270Z,1.00
2022-09-18T02:00:20.415Z,1.08
2022-09-18T02:03:16.063Z,1.75
2022-09-18T02:05:48.430Z,1.00
2022-09-18T02:08:35.296Z,1.30
2022-09-18T02:11:06.636Z,1.42
2022-09-18T02:13:44.646Z,1.52
2022-09-18T02:16:23.345Z,1.25
2022-09-18T02:18:53.381Z,1.42
2022-09-18T02:21:26.349Z,1.00
2022-09-18T02:23:59.201Z,1.25
2022-09-18T02:26:26.835Z,1.25
2022-09-18T02:28:54.936Z,0.88
2022-09-18T02:31:22.052Z,0.95
2022-09-18T02:33:48.916Z,1.00
2022-09-18T02:36:28.943Z,1.25
2022-09-18T02:39:14.810Z,1.70
2022-09-18T02:41:51.124Z,1.17
2022-09-18T02:44:24.830Z,1.10
2022-09-18T02:47:14.936Z,1.17
2022-09-18T02:49:49.027Z,0.90
2022-09-18T02:52:22.968Z,1.00
2022-09-18T02:55:25.868Z,1.30
2022-09-18T02:58:14.166Z,1.02
2022-09-18T03:00:42.554Z,0.90
2022-09-18T03:03:14.867Z,1.08
2022-09-18T03:05:47.670Z,1.00
2022-09-18T03:08:14.056Z,1.17
2022-09-18T03:10:41.147Z,1.52
2022-09-18T03:13:08.298Z,1.30
2022-09-18T03:15:35.744Z,1.48
2022-09-18T03:18:02.147Z,0.80
2022-09-18T03:20:28.679Z,1.35
2022-09-18T03:22:55.127Z,1.05
2022-09-18T03:25:21.834Z,1.27
2022-09-18T03:27:48.491Z,1.05
2022-09-18T03:30:24.922Z,1.40
2022-09-18T03:32:51.760Z,1.10
2022-09-18T03:35:18.225Z,1.02
2022-09-18T03:37:45.957Z,1.10
2022-09-18T03:40:16.370Z,1.08
2022-09-18T03:42:44.603Z,1.17
2022-09-18T03:45:12.515Z,1.00
2022-09-18T03:47:39.363Z,0.75
2022-09-18T03:50:07.663Z,0.90
2022-09-18T03:52:36.071Z,1.38
2022-09-18T03:55:25.939Z,1.00
2022-09-18T03:58:06.367Z,1.02
2022-09-18T04:00:53.109Z,0.90
2022-09-18T04:03:34.112Z,1.00
2022-09-18T04:06:26.114Z,1.05
2022-09-18T04:09:08.380Z,1.08
2022-09-18T04:11:43.015Z,0.80
2022-09-18T04:14:09.551Z,1.10
2022-09-18T04:16:35.985Z,1.13
2022-09-18T04:19:02.894Z,1.15
2022-09-18T04:21:29.582Z,0.82
2022-09-18T04:23:59.364Z,0.90
2022-09-18T04:26:26.978Z,1.20
2022-09-18T04:28:56.657Z,1.10
2022-09-18T04:31:23.311Z,0.73
2022-09-18T04:33:50.263Z,0.80
2022-09-18T04:36:20.775Z,0.87
2022-09-18T04:38:47.325Z,0.80
2022-09-18T04:41:13.748Z,0.90
2022-09-18T04:43:43.404Z,0.70
2022-09-18T04:46:10.853Z,0.95
2022-09-18T04:48:37.444Z,0.75
2022-09-18T04:51:05.145Z,0.43
2022-09-18T04:53:44.666Z,1.27
2022-09-18T04:56:11.225Z,0.82
2022-09-18T04:58:39.671Z,0.80
2022-09-18T05:01:06.284Z,1.10
2022-09-18T05:03:32.826Z,0.70
2022-09-18T05:05:59.694Z,0.65
2022-09-18T05:08:28.595Z,0.90
2022-09-18T05:10:55.346Z,0.80
2022-09-18T05:13:21.711Z,0.70
2022-09-18T05:16:08.693Z,0.57
2022-09-18T05:18:35.683Z,0.70
2022-09-18T05:21:04.405Z,0.70
2022-09-18T05:23:34.398Z,1.08
2022-09-18T05:26:02.239Z,0.80
2022-09-18T05:28:28.658Z,0.73
2022-09-18T05:31:00.882Z,0.80
2022-09-18T05:33:38.690Z,0.87
2022-09-18T05:36:05.447Z,1.02
2022-09-18T05:38:32.318Z,0.75
2022-09-18T05:41:01.741Z,0.73
2022-09-18T05:43:29.126Z,0.63
2022-09-18T05:45:56.460Z,0.73
2022-09-18T05:48:32.155Z,0.70
2022-09-18T05:50:58.658Z,1.02
2022-09-18T05:53:27.330Z,0.85
2022-09-18T05:56:17.127Z,0.82
2022-09-18T05:58:44.274Z,1.10
2022-09-18T06:01:14.153Z,0.80
2022-09-18T06:04:03.708Z,0.75
2022-09-18T06:06:40.496Z,0.50
2022-09-18T06:09:09.103Z,0.70
2022-09-18T06:11:35.539Z,1.00
2022-09-18T06:14:02.023Z,1.00
2022-09-18T06:16:28.709Z,0.63
2022-09-18T06:18:59.556Z,1.10
2022-09-18T06:21:25.986Z,0.73
2022-09-18T06:23:52.387Z,0.60
2022-09-18T06:26:48.664Z,0.85
2022-09-18T06:29:15.335Z,0.77
2022-09-18T06:31:48.462Z,0.63
2022-09-18T06:34:21.134Z,0.70
2022-09-18T06:36:48.067Z,1.00
2022-09-18T06:39:36.635Z,1.00
2022-09-18T06:42:03.821Z,0.70
2022-09-18T06:44:49.017Z,0.77
2022-09-18T06:47:16.810Z,0.80
2022-09-18T06:49:45.873Z,0.82
2022-09-18T06:52:12.294Z,0.73
2022-09-18T06:54:39.754Z,1.00
2022-09-18T06:57:07.686Z,0.82
2022-09-18T06:59:34.157Z,0.90
2022-09-18T07:02:00.801Z,0.90
2022-09-18T07:04:47.574Z,0.80
2022-09-18T07:07:16.356Z,0.73
2022-09-18T07:09:45.821Z,0.75
2022-09-18T07:12:29.310Z,0.80
2022-09-18T07:14:56.181Z,0.98
2022-09-18T07:17:26.718Z,0.68
2022-09-18T07:19:55.416Z,0.98
2022-09-18T07:22:26.762Z,0.80
2022-09-18T07:24:54.385Z,0.60
2022-09-18T07:27:21.833Z,0.80
2022-09-18T07:29:49.594Z,0.52
2022-09-18T07:32:22.472Z,0.60
2022-09-18T07:34:49.135Z,0.98
2022-09-18T07:37:22.920Z,0.85
2022-09-18T07:39:58.605Z,0.70
2022-09-18T07:42:43.449Z,1.02
2022-09-18T07:45:10.904Z,0.75
2022-09-18T07:47:37.543Z,0.60
2022-09-18T07:50:06.305Z,0.60
2022-09-18T07:52:32.825Z,0.80
2022-09-18T07:54:59.589Z,0.68
2022-09-18T07:57:30.366Z,1.63
2022-09-18T08:00:14.549Z,1.00
2022-09-18T08:02:47.834Z,0.85
2022-09-18T08:05:27.229Z,1.55
2022-09-18T08:08:06.163Z,3.38
2022-09-18T08:10:50.989Z,2.75
2022-09-18T08:13:35.711Z,2.08
2022-09-18T08:16:26.790Z,1.10
2022-09-18T08:19:02.210Z,1.00
2022-09-18T08:21:48.978Z,2.00
2022-09-18T08:24:17.315Z,1.23
2022-09-18T08:26:45.092Z,2.42
2022-09-18T08:29:18.708Z,2.85
2022-09-18T08:31:50.110Z,4.38
2022-09-18T08:34:17.220Z,1.77
2022-09-18T08:36:44.715Z,2.40
2022-09-18T08:39:46.131Z,0.97
2022-09-18T08:43:03.315Z,0.93
2022-09-18T08:45:56.227Z,1.20
2022-09-18T08:51:14.532Z,0.90
2022-09-18T08:53:50.750Z,2.38
2022-09-18T08:56:36.945Z,1.73
2022-09-18T08:59:46.166Z,1.40
2022-09-18T09:02:30.110Z,2.35
2022-09-18T09:05:01.862Z,1.50
2022-09-18T09:08:01.987Z,2.65
2022-09-18T09:10:41.148Z,1.77
2022-09-18T09:13:23.395Z,2.00
2022-09-18T09:15:56.394Z,1.50
2022-09-18T09:18:31.351Z,1.77
2022-09-18T09:21:11.658Z,3.03
2022-09-18T09:23:56.048Z,1.10
2022-09-18T09:27:17.536Z,1.65
2022-09-18T09:30:21.694Z,3.95
2022-09-18T09:33:32.324Z,1.77
2022-09-18T09:36:17.989Z,1.35
2022-09-18T09:39:13.259Z,2.92
2022-09-18T09:42:05.296Z,4.20
2022-09-18T09:44:57.045Z,3.97
2022-09-18T09:47:45.539Z,2.90
2022-09-18T09:50:47.267Z,2.30
2022-09-18T09:53:15.124Z,1.88
2022-09-18T09:56:01.420Z,1.90
2022-09-18T09:58:56.306Z,1.60
2022-09-18T10:01:27.937Z,1.67
2022-09-18T10:04:16.299Z,2.05
2022-09-18T10:07:05.792Z,1.70
2022-09-18T10:09:40.769Z,3.92
2022-09-18T10:12:25.344Z,3.40
2022-09-18T10:15:04.011Z,3.08
2022-09-18T10:17:37.273Z,2.90
2022-09-18T10:20:06.043Z,5.68
2022-09-18T10:22:34.799Z,6.28
2022-09-18T10:25:30.363Z,3.45
2022-09-18T10:27:58.381Z,1.73
2022-09-18T10:30:24.823Z,1.90
2022-09-18T10:32:53.402Z,2.10
2022-09-18T10:35:30.600Z,2.38
2022-09-18T10:40:39.567Z,1.25
2022-09-18T10:43:15.600Z,1.30
2022-09-18T10:45:42.059Z,2.15
2022-09-18T10:48:24.828Z,3.90
2022-09-18T10:51:00.327Z,4.60
2022-09-18T10:53:34.904Z,1.70
2022-09-18T10:56:20.525Z,1.65
2022-09-18T10:58:50.325Z,1.52
2022-09-18T11:01:17.628Z,2.42
2022-09-18T11:04:01.314Z,5.20
2022-09-18T11:06:33.932Z,3.10
2022-09-18T11:09:11.241Z,10.70
2022-09-18T11:14:29.307Z,5.25
2022-09-18T11:17:02.061Z,2.60
2022-09-18T11:19:38.831Z,3.92
2022-09-18T11:22:49.468Z,3.45
2022-09-18T11:25:28.504Z,6.07
2022-09-18T11:28:00.979Z,2.10
2022-09-18T11:30:38.390Z,1.70
2022-09-18T11:33:20.387Z,1.10
2022-09-18T11:36:03.497Z,2.08
2022-09-18T11:38:31.811Z,2.08
2022-09-18T11:41:02.833Z,2.10
2022-09-18T11:43:38.187Z,0.88
2022-09-18T11:46:27.825Z,1.60
2022-09-18T11:49:38.943Z,1.27
2022-09-18T11:52:17.088Z,3.70
2022-09-18T11:54:58.097Z,2.72
2022-09-18T11:58:05.699Z,1.95
2022-09-18T12:00:40.252Z,1.33
2022-09-18T12:03:27.804Z,1.20
2022-09-18T12:06:00.172Z,1.23
2022-09-18T12:08:34.734Z,0.80
2022-09-18T12:11:13.059Z,0.90
2022-09-18T12:13:51.148Z,1.00
2022-09-18T12:16:38.003Z,2.13
2022-09-18T12:19:13.195Z,2.75
2022-09-18T12:22:01.509Z,3.20
2022-09-18T12:24:29.599Z,2.25
2022-09-18T12:27:14.790Z,2.20
2022-09-18T12:29:44.085Z,2.17
2022-09-18T12:32:22.441Z,4.60
2022-09-18T12:35:16.763Z,3.00
2022-09-18T12:37:45.407Z,2.33
2022-09-18T12:40:30.777Z,2.50
2022-09-18T12:43:23.111Z,1.77
2022-09-18T12:46:03.161Z,2.25
2022-09-18T12:48:38.523Z,2.30
2022-09-18T12:51:18.735Z,2.33
2022-09-18T12:54:05.874Z,1.20
2022-09-18T12:56:51.459Z,2.03
2022-09-18T12:59:40.752Z,1.80
2022-09-18T13:02:14.491Z,1.35
2022-09-18T13:04:47.928Z,4.32
2022-09-18T13:07:19.817Z,9.73
2022-09-18T13:10:05.660Z,4.63
2022-09-18T13:12:49.475Z,2.40
2022-09-18T13:15:25.605Z,3.20
2022-09-18T13:18:01.162Z,2.47
2022-09-18T13:20:44.278Z,2.28
2022-09-18T13:23:33.564Z,2.80
2022-09-18T13:26:01.528Z,3.35
2022-09-18T13:28:28.840Z,1.70
2022-09-18T13:31:33.472Z,1.38
2022-09-18T13:34:04.580Z,1.08
2022-09-18T13:36:34.710Z,8.35
2022-09-18T13:39:17.495Z,7.50
2022-09-18T13:41:47.937Z,2.80
2022-09-18T13:44:24.892Z,1.75
2022-09-18T13:46:54.910Z,1.60
2022-09-18T13:49:29.014Z,1.35
2022-09-18T13:51:56.540Z,1.65
2022-09-18T13:54:25.964Z,1.30
2022-09-18T13:57:14.611Z,1.30
2022-09-18T13:59:49.924Z,1.08
2022-09-18T14:02:31.552Z,0.93
2022-09-18T14:04:59.588Z,0.93
2022-09-18T14:07:25.915Z,1.60
2022-09-18T14:10:04.872Z,1.60
2022-09-18T14:12:36.063Z,2.08
2022-09-18T14:15:04.295Z,1.05
2022-09-18T14:17:32.622Z,2.25
2022-09-18T14:20:10.992Z,1.70
2022-09-18T14:22:40.232Z,2.85
2022-09-18T14:25:11.247Z,3.50
2022-09-18T14:28:03.396Z,2.80
2022-09-18T14:30:31.461Z,6.68
2022-09-18T14:33:08.356Z,2.42
2022-09-18T14:35:41.859Z,3.30
2022-09-18T14:38:25.720Z,2.90
2022-09-18T14:40:57.942Z,0.95
2022-09-18T14:43:25.542Z,1.90
2022-09-18T14:45:53.217Z,2.55
2022-09-18T14:48:25.808Z,2.28
2022-09-18T14:51:04.559Z,2.08
2022-09-18T14:53:31.677Z,1.70
2022-09-18T14:56:02.888Z,2.15
2022-09-18T14:58:34.520Z,1.50
2022-09-18T15:01:02.726Z,1.55
2022-09-18T15:03:32.304Z,1.50
2022-09-18T15:06:15.791Z,2.25
2022-09-18T15:08:45.671Z,1.33
2022-09-18T15:11:17.543Z,2.00
2022-09-18T15:13:44.222Z,1.40
2022-09-18T15:16:21.341Z,2.80
2022-09-18T15:18:49.243Z,2.05
2022-09-18T15:21:20.431Z,4.20
2022-09-18T15:23:46.814Z,5.32
2022-09-18T15:26:15.591Z,3.70
2022-09-18T15:28:44.950Z,2.65
2022-09-18T15:31:13.048Z,4.05
2022-09-18T15:33:50.509Z,4.47
2022-09-18T15:36:26.475Z,1.70
2022-09-18T15:38:54.729Z,3.25
2022-09-18T15:41:30.511Z,3.95
2022-09-18T15:43:56.920Z,3.30
2022-09-18T15:46:41.265Z,2.47
2022-09-18T15:49:28.941Z,4.43
2022-09-18T15:51:55.907Z,2.28
2022-09-18T15:54:22.204Z,2.97
2022-09-18T15:56:57.574Z,2.17
2022-09-18T15:59:36.952Z,2.05
2022-09-18T16:02:18.922Z,2.50
2022-09-18T16:07:21.451Z,1.40
2022-09-18T16:09:49.294Z,1.30
2022-09-18T16:12:26.529Z,2.22
2022-09-18T16:15:11.111Z,3.53
2022-09-18T16:17:51.040Z,1.70
2022-09-18T16:20:37.075Z,2.28
2022-09-18T16:23:25.995Z,2.72
2022-09-18T16:26:06.578Z,3.05
2022-09-18T16:28:44.679Z,1.40
2022-09-18T16:31:18.285Z,1.30
2022-09-18T16:34:01.173Z,1.98
2022-09-18T16:36:36.090Z,1.45
2022-09-18T16:39:07.934Z,4.53
2022-09-18T16:44:04.034Z,2.58
2022-09-18T16:46:52.108Z,2.03
2022-09-18T16:49:23.179Z,1.35
2022-09-18T16:51:49.644Z,1.30
2022-09-18T16:54:16.084Z,1.00
2022-09-18T16:56:51.503Z,1.25
2022-09-18T16:59:20.433Z,1.20
2022-09-18T17:02:02.962Z,3.75
2022-09-18T17:04:30.359Z,2.80
2022-09-18T17:06:56.794Z,3.38
2022-09-18T17:09:23.892Z,4.18
2022-09-18T17:11:51.639Z,3.67
2022-09-18T17:14:18.366Z,3.47
2022-09-18T17:16:45.997Z,3.25
2022-09-18T17:19:13.055Z,3.00
2022-09-18T17:21:39.899Z,6.88
2022-09-18T17:24:07.273Z,12.50
2022-09-18T17:26:35.718Z,8.32
2022-09-18T17:29:02.192Z,8.68
2022-09-18T17:31:28.761Z,4.50
2022-09-18T17:33:55.785Z,3.60
2022-09-18T17:36:22.948Z,4.82
2022-09-18T17:38:49.417Z,5.25
2022-09-18T17:41:18.221Z,4.00
2022-09-18T17:43:45.011Z,3.70
2022-09-18T17:46:13.157Z,3.38
2022-09-18T17:48:39.623Z,2.20
2022-09-18T17:51:15.580Z,3.10
2022-09-18T17:53:43.240Z,3.60
2022-09-18T17:56:11.279Z,1.67
2022-09-18T17:58:40.547Z,1.80
2022-09-18T18:01:10.845Z,2.65
2022-09-18T18:03:37.431Z,1.98
2022-09-18T18:06:03.892Z,2.42
2022-09-18T18:08:30.908Z,3.78
2022-09-18T18:11:04.260Z,3.97
2022-09-18T18:13:30.675Z,5.75
2022-09-18T18:16:09.526Z,4.30
2022-09-18T18:18:39.531Z,2.40
2022-09-18T18:21:07.176Z,2.60
2022-09-18T18:23:36.008Z,6.18
2022-09-18T18:26:04.642Z,12.32
2022-09-18T18:28:32.439Z,9.38
2022-09-18T18:31:06.026Z,3.50
2022-09-18T18:33:36.534Z,4.43
2022-09-18T18:36:10.025Z,6.75
2022-09-18T18:38:36.537Z,6.30
2022-09-18T18:41:03.845Z,2.95
2022-09-18T18:43:31.438Z,2.05
2022-09-18T18:45:58.163Z,4.30
2022-09-18T18:48:24.577Z,3.03
2022-09-18T18:50:50.952Z,3.47
2022-09-18T18:53:17.490Z,4.72
2022-09-18T18:55:48.587Z,2.20
2022-09-18T18:58:15.628Z,2.28
2022-09-18T19:00:42.118Z,2.25
2022-09-18T19:03:08.551Z,2.75
2022-09-18T19:05:35.995Z,3.55
2022-09-18T19:08:03.672Z,3.05
2022-09-18T19:10:30.359Z,3.05
2022-09-18T19:12:57.128Z,2.70
2022-09-18T19:15:24.856Z,3.10
2022-09-18T19:17:51.987Z,2.63
2022-09-18T19:20:19.805Z,2.38
2022-09-18T19:22:56.756Z,2.22
2022-09-18T19:25:27.219Z,2.28
2022-09-18T19:27:57.214Z,1.85
2022-09-18T19:30:25.296Z,2.15
2022-09-18T19:32:55.711Z,1.77
2022-09-18T19:35:22.602Z,2.10
2022-09-18T19:37:49.478Z,1.95
2022-09-18T19:40:17.564Z,2.28
2022-09-18T19:42:50.867Z,2.30
2022-09-18T19:45:22.367Z,1.83
2022-09-18T19:47:50.667Z,2.03
2022-09-18T19:50:22.871Z,2.35
2022-09-18T19:52:51.377Z,2.25
2022-09-18T19:55:20.458Z,2.38
2022-09-18T19:57:47.890Z,2.50
2022-09-18T20:00:14.876Z,1.88
2022-09-18T20:02:41.564Z,1.90
2022-09-18T20:05:09.618Z,2.00
2022-09-18T20:07:39.730Z,1.80
2022-09-18T20:10:08.815Z,1.88
2022-09-18T20:12:38.003Z,1.40
2022-09-18T20:15:05.491Z,1.80
2022-09-18T20:17:32.185Z,1.88
2022-09-18T20:19:59.514Z,2.03
2022-09-18T20:22:26.790Z,1.80
2022-09-18T20:24:53.967Z,2.60
2022-09-18T20:27:21.839Z,1.95
2022-09-18T20:29:48.906Z,2.75
2022-09-18T20:32:15.413Z,2.10
2022-09-18T20:34:45.900Z,1.77
2022-09-18T20:37:14.047Z,2.08
2022-09-18T20:39:41.095Z,1.92
2022-09-18T20:42:07.499Z,2.08
2022-09-18T20:44:34.933Z,1.98
2022-09-18T20:47:05.082Z,2.70
2022-09-18T20:49:34.469Z,1.92
2022-09-18T20:52:03.238Z,1.60
2022-09-18T20:54:30.453Z,2.03
2022-09-18T20:56:57.642Z,1.90
2022-09-18T20:59:24.876Z,1.52
2022-09-18T21:01:51.807Z,1.88
2022-09-18T21:04:20.738Z,1.63
2022-09-18T21:06:55.847Z,2.08
2022-09-18T21:09:24.611Z,1.80
2022-09-18T21:11:51.059Z,1.73
2022-09-18T21:14:19.972Z,1.45
2022-09-18T21:16:46.780Z,1.80
2022-09-18T21:19:19.221Z,1.60
2022-09-18T21:21:47.473Z,1.73
2022-09-18T21:24:17.186Z,1.50
2022-09-18T21:26:45.938Z,1.45
2022-09-18T21:29:17.013Z,2.08
2022-09-18T21:31:45.472Z,1.83
2022-09-18T21:34:19.352Z,1.92
2022-09-18T21:36:45.715Z,1.83
2022-09-18T21:39:14.234Z,2.00
2022-09-18T21:41:45.969Z,1.92
2022-09-18T21:46:40.335Z,1.60
2022-09-18T21:49:08.717Z,1.60
2022-09-18T21:51:37.124Z,1.77
2022-09-18T21:54:05.513Z,2.10
2022-09-18T21:56:33.227Z,1.88
2022-09-18T21:58:59.976Z,1.67
2022-09-18T22:01:31.150Z,1.65
2022-09-18T22:04:00.752Z,1.67
2022-09-18T22:06:29.202Z,1.73
2022-09-18T22:08:57.307Z,2.42
2022-09-18T22:11:29.970Z,1.70
2022-09-18T22:13:59.492Z,1.85
2022-09-18T22:16:28.805Z,1.77
2022-09-18T22:18:55.791Z,1.63
2022-09-18T22:21:25.614Z,1.80
2022-09-18T22:23:54.644Z,1.45
2022-09-18T22:26:22.700Z,1.40
2022-09-18T22:28:51.220Z,2.42
2022-09-18T22:31:17.925Z,1.95
2022-09-18T22:33:46.215Z,1.70
2022-09-18T22:36:14.044Z,1.90
2022-09-18T22:38:40.910Z,1.63
2022-09-18T22:41:08.263Z,2.38
2022-09-18T22:43:35.758Z,1.67
2022-09-18T22:46:03.515Z,2.10
2022-09-18T22:48:32.607Z,1.63
2022-09-18T22:51:12.830Z,1.83
2022-09-18T22:53:45.305Z,1.70
2022-09-18T22:56:13.908Z,1.70
2022-09-18T22:58:41.658Z,1.50
2022-09-18T23:01:11.382Z,1.77
2022-09-18T23:03:38.750Z,1.70
2022-09-18T23:06:06.989Z,1.90
2022-09-18T23:08:34.824Z,1.65
2022-09-18T23:11:10.603Z,1.83
2022-09-18T23:13:41.859Z,1.70
2022-09-18T23:16:13.042Z,1.75
2022-09-18T23:18:40.694Z,2.20
2022-09-18T23:21:11.174Z,1.25
2022-09-18T23:23:39.660Z,1.27
2022-09-18T23:26:10.984Z,1.63
2022-09-18T23:28:40.170Z,1.90
2022-09-18T23:31:18.496Z,2.10
2022-09-18T23:33:53.677Z,1.58
2022-09-18T23:36:23.291Z,1.58
2022-09-18T23:38:54.571Z,1.40
2022-09-18T23:41:21.206Z,1.40
2022-09-18T23:43:49.579Z,2.00
2022-09-18T23:46:16.965Z,1.23
2022-09-18T23:48:43.718Z,1.77
2022-09-18T23:51:12.124Z,1.80
2022-09-18T23:53:41.427Z,1.83
2022-09-18T23:56:13.050Z,1.55
2022-09-18T23:58:40.617Z,1.70
